KBIF/BIF METAR and TAF weather

Enter ICAO airport designator
Station Type Date Time Source
KBIF METAR 2020/07/07 08:58 UTC NOAA

KBIF 070858Z AUTO 22003KT 10SM OVC160 28/09 A3003 RMK AO2 SLP090 T02800092 53000 CHINO RWY03 $


Station Type Date Time Source
KBIF Decoded METAR 2020/07/07 08:58 UTC NOAA

Biggs Army Air Field / Ft. Bliss, TX, United States (KBIF) 31-51N 106-23W
Jul 07, 2020 - 04:58 AM EDT / 2020.07.07 0858 UTC
Wind: from the SW (220 degrees) at 3 MPH (3 KT):0
Visibility: 10 mile(s):0
Sky conditions: overcast
Temperature: 82.4 F (28.0 C)
Dew Point: 48.6 F (9.2 C)
Relative Humidity: 30%
Pressure (altimeter): 30.03 in. Hg (1016 hPa)
Pressure tendency: 0.00 inches (0.0 hPa) higher than three hours ago
ob: KBIF 070858Z AUTO 22003KT 10SM OVC160 28/09 A3003 RMK AO2 SLP090 T02800092 53000 CHINO RWY03
cycle: 9

Station Type Date Time Source
KBIF TAF 2020/07/07 06:02 UTC NOAA

TAF KBIF 070600Z 0706/0812 07008KT 9999 FEW100 QNH3003INS
BECMG 0708/0709 12006KT 9999 FEW130 SCT150 QNH3002INS
BECMG 0720/0721 12015G20KT 9999 VCTS BKN090CB QNH2998INS
BECMG 0802/0803 14006KT 9999 NSW FEW150 QNH2997INS TX36/0718Z TN24/0712Z

Example: see airport list